M/T Vemaoil Xi — 9HWD7 — position and weather

sailwx.info

Track history (hours):
 
Tides and Currents Weather Stations Pressure Air Temp Water Temp Dewpoint Dewpoint Depression Visibility Wind Speed Wind Dir Waves Ship Positions

M/T Vemaoil Xi

Last reported at 2015-Jul-05 04:33 UTC. Time now 2015-Jul-05 06:07 UTC.
Position N 35°49' E 014°35'.

Length 105 m; draft 6.6 m.

Type: Tanker. MMSI: 215631000.

Date/timePositionNaut miles runAvg speedWind from/ knotsBaromVisibWave heightAir tempDewpointWater temp
2015-Jul-05 04:33N 35°49' E 014°35'0 0.0
2015-Jul-05 03:33N 35°49' E 014°35'0 0.0
2015-Jul-05 02:33N 35°49' E 014°35'0 0.0
2015-Jul-05 01:33N 35°49' E 014°35'0 0.0
2015-Jul-05 00:33N 35°49' E 014°35'0 0.0
2015-Jul-04 23:33N 35°49' E 014°35'0 0.0
2015-Jul-04 22:33N 35°49' E 014°35'0 0.0
2015-Jul-04 21:33N 35°49' E 014°35'0 0.3
2015-Jul-04 20:33N 35°49' E 014°35'6 6.4
2015-Jul-04 19:33N 35°52' E 014°42'4 4.0
2015-Jul-04 18:33N 35°55' E 014°46'0 0.0
2015-Jul-04 17:33N 35°55' E 014°46'0 0.0
2015-Jul-04 16:33N 35°55' E 014°46'0 0.0
2015-Jul-04 15:33N 35°55' E 014°46'2 2.4
2015-Jul-04 14:33N 35°53' E 014°45'0 0.0
2015-Jul-04 13:32N 35°53' E 014°45'0 0.0
2015-Jul-04 12:32N 35°53' E 014°45'0 0.0
2015-Jul-04 11:32N 35°53' E 014°45'0 0.5
2015-Jul-04 10:34N 35°52' E 014°45'6 5.6
2015-Jul-04 09:34N 35°49' E 014°39'3 0.8
2015-Jul-04 05:29N 35°49' E 014°35'0 0.1
2015-Jul-04 04:32N 35°49' E 014°35'0 0.0
2015-Jul-04 03:05N 35°49' E 014°35'0 0.0
2015-Jul-04 02:23N 35°49' E 014°35'0 0.4
2015-Jul-04 01:33N 35°49' E 014°35'7 6.6
2015-Jul-04 00:33N 35°52' E 014°43'3 3.0
2015-Jul-03 23:32N 35°53' E 014°46'0 0.0
2015-Jul-03 22:32N 35°53' E 014°46'0 0.0
2015-Jul-03 21:32N 35°53' E 014°46'0 0.0
2015-Jul-03 20:32N 35°53' E 014°46'0 0.0
2015-Jul-03 19:29N 35°53' E 014°46'0 0.1
2015-Jul-03 18:32N 35°53' E 014°46'0 0.0
2015-Jul-03 16:08N 35°53' E 014°46'0 0.0
2015-Jul-03 15:32N 35°53' E 014°46'0 0.2
2015-Jul-03 14:32N 35°53' E 014°46'1 1.1
2015-Jul-03 13:32N 35°52' E 014°45'6 5.7
2015-Jul-03 12:32N 35°49' E 014°39'4 3.8
2015-Jul-03 11:33N 35°49' E 014°35'0 0.0
2015-Jul-03 10:33N 35°49' E 014°35'0 0.0
2015-Jul-03 09:33N 35°49' E 014°35'0 0.0
2015-Jul-03 06:21N 35°49' E 014°35'1 1.8
2015-Jul-03 05:33N 35°49' E 014°33'0 0.1
2015-Jul-03 01:23N 35°49' E 014°33'0 0.0
2015-Jul-02 23:32N 35°49' E 014°33'0 0.0
2015-Jul-02 22:29N 35°49' E 014°33'0 0.0
2015-Jul-02 21:29N 35°49' E 014°33'0 0.0
2015-Jul-02 20:32N 35°49' E 014°33'0 0.2
2015-Jul-02 19:11N 35°49' E 014°33'1 1.2
2015-Jul-02 18:32N 35°49' E 014°34'3 2.6
2015-Jul-02 17:33N 35°49' E 014°37'7 7.1
2015-Jul-02 16:33N 35°51' E 014°45'3 2.0
2015-Jul-02 15:05N 35°52' E 014°48'0 0.1
2015-Jul-02 14:26N 35°52' E 014°48'0 0.0
2015-Jul-02 12:05N 35°52' E 014°48'0 0.1
2015-Jul-02 11:29N 35°52' E 014°48'0 0.0
2015-Jul-02 10:18N 35°52' E 014°48'0 0.0
2015-Jul-02 09:32N 35°52' E 014°48'0 0.0
2015-Jul-02 08:29N 35°52' E 014°49'0 0.0
2015-Jul-02 07:29N 35°52' E 014°49'0 0.0
2015-Jul-02 06:32N 35°52' E 014°49'1 1.2
2015-Jul-02 05:25N 35°52' E 014°47'6 6.4
2015-Jul-02 04:33N 35°51' E 014°40'1 0.5
2015-Jul-02 03:33N 35°51' E 014°40'0 0.0
2015-Jul-02 02:34N 35°51' E 014°40'0 0.0
2015-Jul-02 01:34N 35°51' E 014°40'0 0.0
2015-Jul-02 00:33N 35°51' E 014°40'0 0.0
2015-Jul-01 23:33N 35°51' E 014°40'0 0.1
2015-Jul-01 22:33N 35°51' E 014°40'0 0.0
2015-Jul-01 21:33N 35°51' E 014°40'5 4.9
2015-Jul-01 20:33N 35°52' E 014°46'6 6.4
2015-Jul-01 19:33N 35°53' E 014°53'0 0.4
2015-Jul-01 18:33N 35°53' E 014°54'0 0.0
2015-Jul-01 17:33N 35°53' E 014°54'0 0.0
2015-Jul-01 16:34N 35°53' E 014°54'0 0.0
2015-Jul-01 15:33N 35°53' E 014°54'0 0.0
2015-Jul-01 14:33N 35°53' E 014°54'0 0.0
2015-Jul-01 13:34N 35°53' E 014°54'1 0.9
2015-Jul-01 12:33N 35°53' E 014°53'6 6.4
2015-Jul-01 11:33N 35°54' E 014°45'7 6.7
2015-Jul-01 10:33N 35°54' E 014°37'6 3.7
2015-Jul-01 09:04N 35°53' E 014°30'0 0.0
2015-Jul-01 08:31N 35°53' E 014°30'0 0.0
2015-Jul-01 07:31N 35°53' E 014°30'0 0.0
2015-Jul-01 06:19N 35°53' E 014°30'0 0.0
2015-Jul-01 05:16N 35°53' E 014°30'0 0.0
2015-Jun-30 22:11N 35°53' E 014°30'0 0.1
2015-Jun-30 21:29N 35°53' E 014°30'4 4.8
2015-Jun-30 20:33N 35°52' E 014°35'3 3.3
2015-Jun-30 19:33N 35°49' E 014°35'0 0.0
2015-Jun-30 18:27N 35°49' E 014°35'0 0.0
2015-Jun-30 16:30N 35°49' E 014°35'0 0.0
2015-Jun-30 15:33N 35°49' E 014°35'0 0.0
2015-Jun-30 13:33N 35°49' E 014°35'0 0.0
2015-Jun-30 12:33N 35°49' E 014°35'0 0.0
2015-Jun-30 11:33N 35°49' E 014°35'0 0.0
2015-Jun-30 10:27N 35°49' E 014°35'0 0.0
2015-Jun-30 09:33N 35°49' E 014°35'0 0.0
2015-Jun-30 08:33N 35°49' E 014°35'0 0.0
2015-Jun-30 07:33N 35°49' E 014°35'0 0.0
2015-Jun-30 06:33N 35°49' E 014°35'0 0.1
2015-Jun-30 05:33N 35°49' E 014°35'0 0.0
2015-Jun-30 04:33N 35°49' E 014°35'0 0.0
2015-Jun-30 03:33N 35°49' E 014°35'0 0.0
2015-Jun-30 02:33N 35°49' E 014°35'0 0.0
2015-Jun-30 01:33N 35°49' E 014°35'0 0.0
2015-Jun-30 00:33N 35°49' E 014°35'0 0.0
2015-Jun-29 23:33N 35°49' E 014°35'0 0.0
2015-Jun-29 22:33N 35°49' E 014°35'0 0.0
2015-Jun-29 21:33N 35°49' E 014°35'0 0.0
2015-Jun-29 20:33N 35°49' E 014°35'0 0.0
2015-Jun-29 19:30N 35°49' E 014°35'0 0.0
2015-Jun-29 18:30N 35°49' E 014°35'0 0.0
2015-Jun-29 17:30N 35°49' E 014°35'0 0.0
2015-Jun-29 16:33N 35°49' E 014°35'0 0.0
2015-Jun-29 14:24N 35°49' E 014°35'0 0.1
2015-Jun-29 13:33N 35°49' E 014°35'0 0.1
2015-Jun-29 12:27N 35°49' E 014°35'0 0.0
2015-Jun-29 11:33N 35°49' E 014°35'0 0.0
2015-Jun-29 10:33N 35°49' E 014°35'0 0.0
2015-Jun-29 09:30N 35°49' E 014°35'0 0.0
2015-Jun-29 08:33N 35°49' E 014°35'3 3.2
2015-Jun-29 07:34N 35°50' E 014°39'6 6.0
2015-Jun-29 06:32N 35°52' E 014°46'0 0.1
2015-Jun-29 05:32N 35°52' E 014°46'0 0.0
2015-Jun-29 04:20N 35°52' E 014°46'0 0.0
2015-Jun-29 03:32N 35°52' E 014°46'0 0.0
2015-Jun-29 02:32N 35°52' E 014°46'0 0.0
2015-Jun-29 01:32N 35°52' E 014°46'0 0.0
2015-Jun-29 00:32N 35°52' E 014°46'2 2.5
2015-Jun-28 23:33N 35°54' E 014°48'0 0.1
2015-Jun-28 22:33N 35°54' E 014°48'0 0.0
2015-Jun-28 21:33N 35°54' E 014°48'0 0.0
2015-Jun-28 20:30N 35°54' E 014°48'0 0.0
2015-Jun-28 19:33N 35°54' E 014°48'0 0.0
2015-Jun-28 18:33N 35°54' E 014°48'0 0.1
2015-Jun-28 17:33N 35°54' E 014°48'4 3.6
2015-Jun-28 16:33N 35°52' E 014°44'6 5.9
2015-Jun-28 15:33N 35°50' E 014°37'2 2.2
2015-Jun-28 14:33N 35°49' E 014°35'0 0.0
2015-Jun-28 13:33N 35°49' E 014°35'0 0.0
2015-Jun-28 12:33N 35°49' E 014°35'0 0.0
2015-Jun-28 11:33N 35°49' E 014°35'0 0.0
2015-Jun-28 10:33N 35°49' E 014°35'0 0.1
2015-Jun-28 09:29N 35°49' E 014°35'1 0.9
2015-Jun-28 08:33N 35°49' E 014°36'8 6.3
2015-Jun-28 07:19N 35°52' E 014°45'1 1.1
2015-Jun-28 06:33N 35°53' E 014°46'0 0.0
2015-Jun-28 05:33N 35°53' E 014°46'0 0.0
2015-Jun-28 04:33N 35°53' E 014°46'0 0.0
2015-Jun-28 03:33N 35°53' E 014°46'0 0.0
2015-Jun-28 02:32N 35°53' E 014°46'0 0.0
2015-Jun-28 01:33N 35°53' E 014°46'0 0.0
2015-Jun-28 00:33N 35°53' E 014°46'2 1.7
2015-Jun-27 23:32N 35°53' E 014°44'6 6.0
2015-Jun-27 22:33N 35°54' E 014°36'5 1.0
2015-Jun-27 17:23N 35°53' E 014°30'0 0.0
2015-Jun-27 16:33N 35°53' E 014°30'0 0.0
2015-Jun-27 15:33N 35°53' E 014°30'0 0.0
2015-Jun-27 14:26N 35°53' E 014°30'0 0.0
2015-Jun-27 13:09N 35°53' E 014°30'0 0.0
2015-Jun-27 12:33N 35°53' E 014°30'0 0.0
2015-Jun-27 11:33N 35°53' E 014°30'4 3.5
2015-Jun-27 10:33N 35°54' E 014°34'4 4.4
2015-Jun-27 09:33N 35°52' E 014°39'0 0.1
2015-Jun-27 08:33N 35°52' E 014°39'0 0.0
2015-Jun-27 07:33N 35°52' E 014°39'0 0.0
2015-Jun-27 06:33N 35°52' E 014°39'0 0.0
2015-Jun-27 05:33N 35°52' E 014°39'0 0.0
2015-Jun-27 04:33N 35°52' E 014°39'0 0.0
2015-Jun-27 03:32N 35°52' E 014°39'0 0.0
2015-Jun-27 02:33N 35°52' E 014°39'0 0.0
2015-Jun-27 01:33N 35°52' E 014°39'0 0.0
2015-Jun-27 00:33N 35°52' E 014°39'0 0.0
2015-Jun-26 23:32N 35°52' E 014°39'0 0.3
2015-Jun-26 22:33N 35°51' E 014°39'5 5.2
2015-Jun-26 21:33N 35°52' E 014°45'3 2.6
2015-Jun-26 20:33N 35°53' E 014°48'0 0.2
2015-Jun-26 19:33N 35°53' E 014°48'0 0.2
2015-Jun-26 18:33N 35°53' E 014°48'0 0.0
2015-Jun-26 17:24N 35°53' E 014°48'0 0.0
2015-Jun-26 16:33N 35°53' E 014°48'0 0.0
2015-Jun-26 15:33N 35°52' E 014°48'0 0.0
2015-Jun-26 14:31N 35°52' E 014°48'0 0.0
2015-Jun-26 13:23N 35°52' E 014°48'0 0.0
2015-Jun-26 12:33N 35°52' E 014°48'0 0.0
2015-Jun-26 11:27N 35°52' E 014°48'0 0.0
2015-Jun-26 10:32N 35°52' E 014°48'0 0.0
2015-Jun-26 09:33N 35°52' E 014°48'0 0.0
2015-Jun-26 08:33N 35°52' E 014°48'0 0.0
2015-Jun-26 07:32N 35°52' E 014°48'4 3.2
2015-Jun-26 06:24N 35°55' E 014°45'0 0.1
2015-Jun-26 05:29N 35°55' E 014°45'0 0.0
2015-Jun-26 04:33N 35°55' E 014°45'0 0.0
2015-Jun-26 01:22N 35°55' E 014°45'1 0.7
2015-Jun-25 23:28N 35°54' E 014°43'5 5.8
2015-Jun-25 22:33N 35°54' E 014°37'3 0.3
2015-Jun-25 09:33N 35°54' E 014°33'2 1.5
2015-Jun-25 08:29N 35°54' E 014°35'3 2.8
2015-Jun-25 07:33N 35°52' E 014°36'1 1.0
2015-Jun-25 06:26N 35°51' E 014°36'0 0.0
2015-Jun-25 05:29N 35°51' E 014°36'  
Track history (hours):
 
Tides and Currents Weather Stations Pressure Air Temp Water Temp Dewpoint Dewpoint Depression Visibility Wind Speed Wind Dir Waves Ship Positions

M/T Vemaoil Xi

Last reported at 2015-Jul-05 04:33 UTC. Time now 2015-Jul-05 06:07 UTC.
Position N 35°49' E 014°35'.

Length 105 m; draft 6.6 m.

Type: Tanker. MMSI: 215631000.

Date/timePositionNaut miles runAvg speedWind from/ knotsBaromVisibWave heightAir tempDewpointWater temp
2015-Jul-05 04:33N 35°49' E 014°35'0 0.0
2015-Jul-05 03:33N 35°49' E 014°35'0 0.0
2015-Jul-05 02:33N 35°49' E 014°35'0 0.0
2015-Jul-05 01:33N 35°49' E 014°35'0 0.0
2015-Jul-05 00:33N 35°49' E 014°35'0 0.0
2015-Jul-04 23:33N 35°49' E 014°35'0 0.0
2015-Jul-04 22:33N 35°49' E 014°35'0 0.0
2015-Jul-04 21:33N 35°49' E 014°35'0 0.3
2015-Jul-04 20:33N 35°49' E 014°35'6 6.4
2015-Jul-04 19:33N 35°52' E 014°42'4 4.0
2015-Jul-04 18:33N 35°55' E 014°46'0 0.0
2015-Jul-04 17:33N 35°55' E 014°46'0 0.0
2015-Jul-04 16:33N 35°55' E 014°46'0 0.0
2015-Jul-04 15:33N 35°55' E 014°46'2 2.4
2015-Jul-04 14:33N 35°53' E 014°45'0 0.0
2015-Jul-04 13:32N 35°53' E 014°45'0 0.0
2015-Jul-04 12:32N 35°53' E 014°45'0 0.0
2015-Jul-04 11:32N 35°53' E 014°45'0 0.5
2015-Jul-04 10:34N 35°52' E 014°45'6 5.6
2015-Jul-04 09:34N 35°49' E 014°39'3 0.8
2015-Jul-04 05:29N 35°49' E 014°35'0 0.1
2015-Jul-04 04:32N 35°49' E 014°35'0 0.0
2015-Jul-04 03:05N 35°49' E 014°35'0 0.0
2015-Jul-04 02:23N 35°49' E 014°35'0 0.4
2015-Jul-04 01:33N 35°49' E 014°35'7 6.6
2015-Jul-04 00:33N 35°52' E 014°43'3 3.0
2015-Jul-03 23:32N 35°53' E 014°46'0 0.0
2015-Jul-03 22:32N 35°53' E 014°46'0 0.0
2015-Jul-03 21:32N 35°53' E 014°46'0 0.0
2015-Jul-03 20:32N 35°53' E 014°46'0 0.0
2015-Jul-03 19:29N 35°53' E 014°46'0 0.1
2015-Jul-03 18:32N 35°53' E 014°46'0 0.0
2015-Jul-03 16:08N 35°53' E 014°46'0 0.0
2015-Jul-03 15:32N 35°53' E 014°46'0 0.2
2015-Jul-03 14:32N 35°53' E 014°46'1 1.1
2015-Jul-03 13:32N 35°52' E 014°45'6 5.7
2015-Jul-03 12:32N 35°49' E 014°39'4 3.8
2015-Jul-03 11:33N 35°49' E 014°35'0 0.0
2015-Jul-03 10:33N 35°49' E 014°35'0 0.0
2015-Jul-03 09:33N 35°49' E 014°35'0 0.0
2015-Jul-03 06:21N 35°49' E 014°35'1 1.8
2015-Jul-03 05:33N 35°49' E 014°33'0 0.1
2015-Jul-03 01:23N 35°49' E 014°33'0 0.0
2015-Jul-02 23:32N 35°49' E 014°33'0 0.0
2015-Jul-02 22:29N 35°49' E 014°33'0 0.0
2015-Jul-02 21:29N 35°49' E 014°33'0 0.0
2015-Jul-02 20:32N 35°49' E 014°33'0 0.2
2015-Jul-02 19:11N 35°49' E 014°33'1 1.2
2015-Jul-02 18:32N 35°49' E 014°34'3 2.6
2015-Jul-02 17:33N 35°49' E 014°37'7 7.1
2015-Jul-02 16:33N 35°51' E 014°45'3 2.0
2015-Jul-02 15:05N 35°52' E 014°48'0 0.1
2015-Jul-02 14:26N 35°52' E 014°48'0 0.0
2015-Jul-02 12:05N 35°52' E 014°48'0 0.1
2015-Jul-02 11:29N 35°52' E 014°48'0 0.0
2015-Jul-02 10:18N 35°52' E 014°48'0 0.0
2015-Jul-02 09:32N 35°52' E 014°48'0 0.0
2015-Jul-02 08:29N 35°52' E 014°49'0 0.0
2015-Jul-02 07:29N 35°52' E 014°49'0 0.0
2015-Jul-02 06:32N 35°52' E 014°49'1 1.2
2015-Jul-02 05:25N 35°52' E 014°47'6 6.4
2015-Jul-02 04:33N 35°51' E 014°40'1 0.5
2015-Jul-02 03:33N 35°51' E 014°40'0 0.0
2015-Jul-02 02:34N 35°51' E 014°40'0 0.0
2015-Jul-02 01:34N 35°51' E 014°40'0 0.0
2015-Jul-02 00:33N 35°51' E 014°40'0 0.0
2015-Jul-01 23:33N 35°51' E 014°40'0 0.1
2015-Jul-01 22:33N 35°51' E 014°40'0 0.0
2015-Jul-01 21:33N 35°51' E 014°40'5 4.9
2015-Jul-01 20:33N 35°52' E 014°46'6 6.4
2015-Jul-01 19:33N 35°53' E 014°53'0 0.4
2015-Jul-01 18:33N 35°53' E 014°54'0 0.0
2015-Jul-01 17:33N 35°53' E 014°54'0 0.0
2015-Jul-01 16:34N 35°53' E 014°54'0 0.0
2015-Jul-01 15:33N 35°53' E 014°54'0 0.0
2015-Jul-01 14:33N 35°53' E 014°54'0 0.0
2015-Jul-01 13:34N 35°53' E 014°54'1 0.9
2015-Jul-01 12:33N 35°53' E 014°53'6 6.4
2015-Jul-01 11:33N 35°54' E 014°45'7 6.7
2015-Jul-01 10:33N 35°54' E 014°37'6 3.7
2015-Jul-01 09:04N 35°53' E 014°30'0 0.0
2015-Jul-01 08:31N 35°53' E 014°30'0 0.0
2015-Jul-01 07:31N 35°53' E 014°30'0 0.0
2015-Jul-01 06:19N 35°53' E 014°30'0 0.0
2015-Jul-01 05:16N 35°53' E 014°30'0 0.0
2015-Jun-30 22:11N 35°53' E 014°30'0 0.1
2015-Jun-30 21:29N 35°53' E 014°30'4 4.8
2015-Jun-30 20:33N 35°52' E 014°35'3 3.3
2015-Jun-30 19:33N 35°49' E 014°35'0 0.0
2015-Jun-30 18:27N 35°49' E 014°35'0 0.0
2015-Jun-30 16:30N 35°49' E 014°35'0 0.0
2015-Jun-30 15:33N 35°49' E 014°35'0 0.0
2015-Jun-30 13:33N 35°49' E 014°35'0 0.0
2015-Jun-30 12:33N 35°49' E 014°35'0 0.0
2015-Jun-30 11:33N 35°49' E 014°35'0 0.0
2015-Jun-30 10:27N 35°49' E 014°35'0 0.0
2015-Jun-30 09:33N 35°49' E 014°35'0 0.0
2015-Jun-30 08:33N 35°49' E 014°35'0 0.0
2015-Jun-30 07:33N 35°49' E 014°35'0 0.0
2015-Jun-30 06:33N 35°49' E 014°35'0 0.1
2015-Jun-30 05:33N 35°49' E 014°35'0 0.0
2015-Jun-30 04:33N 35°49' E 014°35'0 0.0
2015-Jun-30 03:33N 35°49' E 014°35'0 0.0
2015-Jun-30 02:33N 35°49' E 014°35'0 0.0
2015-Jun-30 01:33N 35°49' E 014°35'0 0.0
2015-Jun-30 00:33N 35°49' E 014°35'0 0.0
2015-Jun-29 23:33N 35°49' E 014°35'0 0.0
2015-Jun-29 22:33N 35°49' E 014°35'0 0.0
2015-Jun-29 21:33N 35°49' E 014°35'0 0.0
2015-Jun-29 20:33N 35°49' E 014°35'0 0.0
2015-Jun-29 19:30N 35°49' E 014°35'0 0.0
2015-Jun-29 18:30N 35°49' E 014°35'0 0.0
2015-Jun-29 17:30N 35°49' E 014°35'0 0.0
2015-Jun-29 16:33N 35°49' E 014°35'0 0.0
2015-Jun-29 14:24N 35°49' E 014°35'0 0.1
2015-Jun-29 13:33N 35°49' E 014°35'0 0.1
2015-Jun-29 12:27N 35°49' E 014°35'0 0.0
2015-Jun-29 11:33N 35°49' E 014°35'0 0.0
2015-Jun-29 10:33N 35°49' E 014°35'0 0.0
2015-Jun-29 09:30N 35°49' E 014°35'0 0.0
2015-Jun-29 08:33N 35°49' E 014°35'3 3.2
2015-Jun-29 07:34N 35°50' E 014°39'6 6.0
2015-Jun-29 06:32N 35°52' E 014°46'0 0.1
2015-Jun-29 05:32N 35°52' E 014°46'0 0.0
2015-Jun-29 04:20N 35°52' E 014°46'0 0.0
2015-Jun-29 03:32N 35°52' E 014°46'0 0.0
2015-Jun-29 02:32N 35°52' E 014°46'0 0.0
2015-Jun-29 01:32N 35°52' E 014°46'0 0.0
2015-Jun-29 00:32N 35°52' E 014°46'2 2.5
2015-Jun-28 23:33N 35°54' E 014°48'0 0.1
2015-Jun-28 22:33N 35°54' E 014°48'0 0.0
2015-Jun-28 21:33N 35°54' E 014°48'0 0.0
2015-Jun-28 20:30N 35°54' E 014°48'0 0.0
2015-Jun-28 19:33N 35°54' E 014°48'0 0.0
2015-Jun-28 18:33N 35°54' E 014°48'0 0.1
2015-Jun-28 17:33N 35°54' E 014°48'4 3.6
2015-Jun-28 16:33N 35°52' E 014°44'6 5.9
2015-Jun-28 15:33N 35°50' E 014°37'2 2.2
2015-Jun-28 14:33N 35°49' E 014°35'0 0.0
2015-Jun-28 13:33N 35°49' E 014°35'0 0.0
2015-Jun-28 12:33N 35°49' E 014°35'0 0.0
2015-Jun-28 11:33N 35°49' E 014°35'0 0.0
2015-Jun-28 10:33N 35°49' E 014°35'0 0.1
2015-Jun-28 09:29N 35°49' E 014°35'1 0.9
2015-Jun-28 08:33N 35°49' E 014°36'8 6.3
2015-Jun-28 07:19N 35°52' E 014°45'1 1.1
2015-Jun-28 06:33N 35°53' E 014°46'0 0.0
2015-Jun-28 05:33N 35°53' E 014°46'0 0.0
2015-Jun-28 04:33N 35°53' E 014°46'0 0.0
2015-Jun-28 03:33N 35°53' E 014°46'0 0.0
2015-Jun-28 02:32N 35°53' E 014°46'0 0.0
2015-Jun-28 01:33N 35°53' E 014°46'0 0.0
2015-Jun-28 00:33N 35°53' E 014°46'2 1.7
2015-Jun-27 23:32N 35°53' E 014°44'6 6.0
2015-Jun-27 22:33N 35°54' E 014°36'5 1.0
2015-Jun-27 17:23N 35°53' E 014°30'0 0.0
2015-Jun-27 16:33N 35°53' E 014°30'0 0.0
2015-Jun-27 15:33N 35°53' E 014°30'0 0.0
2015-Jun-27 14:26N 35°53' E 014°30'0 0.0
2015-Jun-27 13:09N 35°53' E 014°30'0 0.0
2015-Jun-27 12:33N 35°53' E 014°30'0 0.0
2015-Jun-27 11:33N 35°53' E 014°30'4 3.5
2015-Jun-27 10:33N 35°54' E 014°34'4 4.4
2015-Jun-27 09:33N 35°52' E 014°39'0 0.1
2015-Jun-27 08:33N 35°52' E 014°39'0 0.0
2015-Jun-27 07:33N 35°52' E 014°39'0 0.0
2015-Jun-27 06:33N 35°52' E 014°39'0 0.0
2015-Jun-27 05:33N 35°52' E 014°39'0 0.0
2015-Jun-27 04:33N 35°52' E 014°39'0 0.0
2015-Jun-27 03:32N 35°52' E 014°39'0 0.0
2015-Jun-27 02:33N 35°52' E 014°39'0 0.0
2015-Jun-27 01:33N 35°52' E 014°39'0 0.0
2015-Jun-27 00:33N 35°52' E 014°39'0 0.0
2015-Jun-26 23:32N 35°52' E 014°39'0 0.3
2015-Jun-26 22:33N 35°51' E 014°39'5 5.2
2015-Jun-26 21:33N 35°52' E 014°45'3 2.6
2015-Jun-26 20:33N 35°53' E 014°48'0 0.2
2015-Jun-26 19:33N 35°53' E 014°48'0 0.2
2015-Jun-26 18:33N 35°53' E 014°48'0 0.0
2015-Jun-26 17:24N 35°53' E 014°48'0 0.0
2015-Jun-26 16:33N 35°53' E 014°48'0 0.0
2015-Jun-26 15:33N 35°52' E 014°48'0 0.0
2015-Jun-26 14:31N 35°52' E 014°48'0 0.0
2015-Jun-26 13:23N 35°52' E 014°48'0 0.0
2015-Jun-26 12:33N 35°52' E 014°48'0 0.0
2015-Jun-26 11:27N 35°52' E 014°48'0 0.0
2015-Jun-26 10:32N 35°52' E 014°48'0 0.0
2015-Jun-26 09:33N 35°52' E 014°48'0 0.0
2015-Jun-26 08:33N 35°52' E 014°48'0 0.0
2015-Jun-26 07:32N 35°52' E 014°48'4 3.2
2015-Jun-26 06:24N 35°55' E 014°45'0 0.1
2015-Jun-26 05:29N 35°55' E 014°45'0 0.0
2015-Jun-26 04:33N 35°55' E 014°45'0 0.0
2015-Jun-26 01:22N 35°55' E 014°45'1 0.7
2015-Jun-25 23:28N 35°54' E 014°43'5 5.8
2015-Jun-25 22:33N 35°54' E 014°37'3 0.3
2015-Jun-25 09:33N 35°54' E 014°33'2 1.5
2015-Jun-25 08:29N 35°54' E 014°35'3 2.8
2015-Jun-25 07:33N 35°52' E 014°36'1 1.0
2015-Jun-25 06:26N 35°51' E 014°36'0 0.0
2015-Jun-25 05:29N 35°51' E 014°36'  

Dump ship's entire track history